Granite Canon, Wyoming
Current Conditions -  °F | °C
As of 3:56 PM on Friday 28 Nov 2014 (Local Time) from KFEW Reporting Station
Clear Clear  
Wind Chill: 14°   Ceiling: Unl
Heat Index: 14°   Visibility: 10mi
Dew Point: -12°   Wind: 21mph
Humidity: 16%   Direction: 260°W
Pressure: 29.79"   Gusts: 40mph
Location:  41.1°N, 105.14°W
Report Text: KFEW 282256Z AUTO 26018G35KT 10SM CLR 14/M12 A2979 RMK AO2 PK WND 27034/2157 SLP036 T01361123
Loading
Personal Weather Stations






























Interactive Weather Map New forecast layout! Learn more

10-Day Weather Forecast

Advertisements
Track Severe Weather on mobile